createdAt,value
2023-02-23T00:01:41.955Z,23.58
2023-02-23T00:04:10.117Z,17.60
2023-02-23T00:06:38.628Z,18.27
2023-02-23T00:09:12.179Z,17.58
2023-02-23T00:11:39.835Z,15.93
2023-02-23T00:14:09.183Z,17.85
2023-02-23T00:16:37.393Z,18.58
2023-02-23T00:19:08.003Z,19.48
2023-02-23T00:21:35.937Z,18.77
2023-02-23T00:24:05.393Z,16.52
2023-02-23T00:26:35.140Z,17.48
2023-02-23T00:29:04.308Z,15.55
2023-02-23T00:31:33.878Z,18.50
2023-02-23T00:34:04.433Z,17.65
2023-02-23T00:36:34.771Z,19.20
2023-02-23T00:39:12.060Z,19.27
2023-02-23T00:41:40.512Z,18.98
2023-02-23T00:44:08.349Z,23.70
2023-02-23T00:46:37.710Z,20.85
2023-02-23T00:49:05.908Z,24.40
2023-02-23T00:51:33.510Z,19.25
2023-02-23T00:54:01.594Z,15.50
2023-02-23T00:56:29.389Z,21.90
2023-02-23T00:58:57.145Z,17.70
2023-02-23T01:01:25.465Z,17.85
2023-02-23T01:03:54.419Z,14.38
2023-02-23T01:06:22.486Z,16.90
2023-02-23T01:08:52.254Z,15.02
2023-02-23T01:11:21.957Z,16.15
2023-02-23T01:13:51.131Z,19.23
2023-02-23T01:16:22.505Z,13.73
2023-02-23T01:18:50.581Z,18.85
2023-02-23T01:21:22.737Z,21.02
2023-02-23T01:23:50.719Z,18.98
2023-02-23T01:26:19.181Z,20.88
2023-02-23T01:28:50.282Z,18.77
2023-02-23T01:31:18.795Z,19.50
2023-02-23T01:33:46.926Z,23.83
2023-02-23T01:36:15.197Z,19.05
2023-02-23T01:38:44.144Z,18.38
2023-02-23T01:41:11.795Z,21.77
2023-02-23T01:43:56.322Z,25.02
2023-02-23T01:46:24.056Z,20.00
2023-02-23T01:48:56.282Z,19.60
2023-02-23T01:51:26.610Z,26.15
2023-02-23T01:53:59.158Z,24.52
2023-02-23T01:56:30.651Z,21.45
2023-02-23T01:59:03.910Z,21.05
2023-02-23T02:01:31.903Z,24.23
2023-02-23T02:04:02.391Z,27.58
2023-02-23T02:06:30.936Z,23.15
2023-02-23T02:09:06.458Z,23.95
2023-02-23T02:11:37.033Z,24.00
2023-02-23T02:14:12.898Z,27.70
2023-02-23T02:17:02.139Z,29.20
2023-02-23T02:20:00.183Z,25.52
2023-02-23T02:22:45.335Z,32.47
2023-02-23T02:25:31.623Z,29.88
2023-02-23T02:28:29.594Z,26.38
2023-02-23T02:31:17.465Z,28.15
2023-02-23T02:34:28.617Z,31.70
2023-02-23T02:37:33.092Z,31.63
2023-02-23T02:40:16.428Z,32.65
2023-02-23T02:42:56.046Z,31.23
2023-02-23T02:45:28.641Z,30.75
2023-02-23T02:48:04.428Z,31.85
2023-02-23T02:50:41.809Z,30.73
2023-02-23T02:53:14.454Z,35.83
2023-02-23T02:55:44.898Z,30.65
2023-02-23T02:58:13.698Z,32.97
2023-02-23T03:01:00.740Z,33.28
2023-02-23T03:03:51.641Z,35.10
2023-02-23T03:06:38.781Z,30.52
2023-02-23T03:09:35.340Z,30.05
2023-02-23T03:12:28.045Z,29.92
2023-02-23T03:15:25.557Z,35.28
2023-02-23T03:18:18.013Z,36.60
2023-02-23T03:21:08.868Z,33.20
2023-02-23T03:24:06.220Z,36.13
2023-02-23T03:26:57.789Z,40.67
2023-02-23T03:29:52.061Z,38.42
2023-02-23T03:32:45.009Z,36.13
2023-02-23T03:35:37.551Z,44.42
2023-02-23T03:38:30.212Z,38.25
2023-02-23T03:41:18.263Z,42.75
2023-02-23T03:44:09.841Z,39.33
2023-02-23T03:46:58.313Z,38.95
2023-02-23T03:49:48.755Z,43.10
2023-02-23T03:52:38.638Z,45.92
2023-02-23T03:55:28.943Z,40.67
2023-02-23T03:58:20.308Z,43.75
2023-02-23T04:01:10.108Z,44.95
2023-02-23T04:03:59.382Z,51.53
2023-02-23T04:06:50.141Z,48.75
2023-02-23T04:09:35.437Z,44.78
2023-02-23T04:12:26.424Z,46.58
2023-02-23T04:14:57.568Z,42.70
2023-02-23T04:17:29.283Z,46.95
2023-02-23T04:19:57.845Z,44.55
2023-02-23T04:22:25.900Z,49.83
2023-02-23T04:24:53.583Z,45.25
2023-02-23T04:27:21.304Z,45.70
2023-02-23T04:29:48.933Z,52.97
2023-02-23T04:32:19.147Z,45.90
2023-02-23T04:34:48.273Z,49.80
2023-02-23T04:37:17.224Z,45.83
2023-02-23T04:39:48.481Z,42.75
2023-02-23T04:42:16.142Z,47.60
2023-02-23T04:44:44.521Z,45.05
2023-02-23T04:47:12.217Z,41.65
2023-02-23T04:49:39.811Z,41.15
2023-02-23T04:52:09.012Z,47.97
2023-02-23T04:54:38.877Z,46.28
2023-02-23T04:57:07.030Z,42.20
2023-02-23T04:59:34.755Z,45.17
2023-02-23T05:02:02.787Z,45.85
2023-02-23T05:04:30.429Z,46.92
2023-02-23T05:06:58.061Z,43.33
2023-02-23T05:09:27.140Z,43.08
2023-02-23T05:11:54.696Z,43.08
2023-02-23T05:14:22.553Z,44.00
2023-02-23T05:16:50.287Z,39.60
2023-02-23T05:19:18.264Z,49.25
2023-02-23T05:21:46.056Z,42.92
2023-02-23T05:24:13.666Z,39.88
2023-02-23T05:26:42.675Z,39.10
2023-02-23T05:29:10.316Z,40.83
2023-02-23T05:31:38.151Z,49.67
2023-02-23T05:34:06.706Z,42.50
2023-02-23T05:36:34.328Z,42.40
2023-02-23T05:39:01.921Z,48.45
2023-02-23T05:41:30.502Z,45.55
2023-02-23T05:43:59.758Z,49.65
2023-02-23T05:46:29.330Z,49.42
2023-02-23T05:49:00.100Z,48.13
2023-02-23T05:51:28.679Z,50.78
2023-02-23T05:53:56.462Z,48.63
2023-02-23T05:56:24.330Z,43.00
2023-02-23T05:58:54.096Z,51.15
2023-02-23T06:01:26.344Z,41.80
2023-02-23T06:03:53.995Z,47.97
2023-02-23T06:06:22.288Z,49.95
2023-02-23T06:08:49.954Z,48.25
2023-02-23T06:11:18.000Z,54.80
2023-02-23T06:13:45.957Z,48.20
2023-02-23T06:16:13.751Z,51.90
2023-02-23T06:18:42.818Z,48.60
2023-02-23T06:21:10.464Z,48.70
2023-02-23T06:23:38.867Z,54.35
2023-02-23T06:26:06.647Z,45.28
2023-02-23T06:28:34.468Z,47.15
2023-02-23T06:31:02.271Z,48.75
2023-02-23T06:33:30.028Z,50.45
2023-02-23T06:35:59.037Z,53.10
2023-02-23T06:38:27.923Z,43.20
2023-02-23T06:40:55.684Z,53.70
2023-02-23T06:43:23.587Z,51.00
2023-02-23T06:45:52.620Z,45.70
2023-02-23T06:48:20.612Z,47.75
2023-02-23T06:50:48.271Z,50.20
2023-02-23T06:53:18.292Z,55.85
2023-02-23T06:55:45.924Z,46.03
2023-02-23T06:58:15.775Z,48.97
2023-02-23T07:00:43.812Z,45.33
2023-02-23T07:03:11.658Z,48.55
2023-02-23T07:05:39.345Z,52.00
2023-02-23T07:08:07.219Z,49.17
2023-02-23T07:10:37.349Z,49.92
2023-02-23T07:13:05.011Z,45.13
2023-02-23T07:15:32.662Z,52.78
2023-02-23T07:18:00.328Z,61.03
2023-02-23T07:20:28.039Z,51.38
2023-02-23T07:22:55.763Z,47.97
2023-02-23T07:25:23.369Z,50.10
2023-02-23T07:27:54.010Z,51.75
2023-02-23T07:30:24.554Z,44.58
2023-02-23T07:32:52.480Z,50.78
2023-02-23T07:35:20.194Z,50.13
2023-02-23T07:37:48.081Z,52.35
2023-02-23T07:40:16.013Z,55.67
2023-02-23T07:42:45.329Z,58.55
2023-02-23T07:45:14.303Z,58.53
2023-02-23T07:47:41.994Z,47.40
2023-02-23T07:50:12.588Z,49.22
2023-02-23T07:52:42.890Z,53.33
2023-02-23T07:55:14.057Z,61.13
2023-02-23T07:57:43.738Z,51.50
2023-02-23T08:00:14.205Z,58.22
2023-02-23T08:02:42.332Z,52.05
2023-02-23T08:05:10.309Z,50.95
2023-02-23T08:07:37.899Z,45.67
2023-02-23T08:10:06.231Z,46.78
2023-02-23T08:12:34.430Z,48.20
2023-02-23T08:15:02.750Z,47.88
2023-02-23T08:17:31.651Z,53.10
2023-02-23T08:19:59.221Z,59.90
2023-02-23T08:22:26.851Z,47.42
2023-02-23T08:24:54.502Z,46.17
2023-02-23T08:27:22.167Z,49.97
2023-02-23T08:29:52.444Z,45.38
2023-02-23T08:32:20.139Z,41.58
2023-02-23T08:34:49.134Z,43.63
2023-02-23T08:37:16.886Z,45.53
2023-02-23T08:39:45.005Z,47.55
2023-02-23T08:42:12.775Z,41.03
2023-02-23T08:44:40.550Z,41.58
2023-02-23T08:47:08.141Z,50.38
2023-02-23T08:49:35.737Z,41.83
2023-02-23T08:52:05.007Z,41.45
2023-02-23T08:54:32.590Z,45.20
2023-02-23T08:57:00.223Z,41.17
2023-02-23T08:59:28.940Z,46.83
2023-02-23T09:01:56.571Z,49.33
2023-02-23T09:04:24.196Z,48.90
2023-02-23T09:06:51.869Z,51.03
2023-02-23T09:09:20.946Z,50.63
2023-02-23T09:11:48.518Z,44.28
2023-02-23T09:14:16.209Z,48.67
2023-02-23T09:16:44.962Z,46.53
2023-02-23T09:19:12.825Z,52.10
2023-02-23T09:21:40.993Z,55.78
2023-02-23T09:24:08.628Z,49.63
2023-02-23T09:26:40.075Z,52.03
2023-02-23T09:29:08.344Z,43.55
2023-02-23T09:31:36.310Z,46.97
2023-02-23T09:34:04.008Z,45.78
2023-02-23T09:36:32.482Z,54.15
2023-02-23T09:39:00.109Z,52.10
2023-02-23T09:42:08.251Z,55.35
2023-02-23T09:44:56.831Z,50.92
2023-02-23T09:47:33.223Z,48.88
2023-02-23T09:50:04.896Z,46.47
2023-02-23T09:52:39.649Z,43.75
2023-02-23T09:55:10.750Z,43.03
2023-02-23T09:57:40.786Z,38.88
2023-02-23T10:00:18.273Z,47.92
2023-02-23T10:03:02.168Z,51.38
2023-02-23T10:05:34.023Z,45.53
2023-02-23T10:08:07.757Z,50.28
2023-02-23T10:10:43.928Z,48.38
2023-02-23T10:13:19.859Z,45.80
2023-02-23T10:15:53.725Z,44.33
2023-02-23T10:18:45.284Z,40.50
2023-02-23T10:21:21.686Z,42.92
2023-02-23T10:23:54.461Z,41.78
2023-02-23T10:26:24.913Z,40.10
2023-02-23T10:28:55.473Z,37.88
2023-02-23T10:31:34.370Z,38.90
2023-02-23T10:34:07.021Z,37.17
2023-02-23T10:36:38.800Z,35.22
2023-02-23T10:39:08.391Z,31.30
2023-02-23T10:41:37.844Z,38.22
2023-02-23T10:44:16.306Z,34.42
2023-02-23T10:46:50.313Z,38.03
2023-02-23T10:49:22.447Z,33.40
2023-02-23T10:51:52.328Z,34.45
2023-02-23T10:54:43.881Z,32.85
2023-02-23T10:57:19.771Z,30.23
2023-02-23T11:00:02.023Z,30.90
2023-02-23T11:02:31.856Z,25.23
2023-02-23T11:05:01.438Z,33.38
2023-02-23T11:07:31.994Z,28.35
2023-02-23T11:10:25.982Z,31.35
2023-02-23T11:12:53.808Z,32.47
2023-02-23T11:15:42.791Z,30.73
2023-02-23T11:18:23.600Z,33.95
2023-02-23T11:20:52.434Z,27.80
2023-02-23T11:23:29.117Z,32.55
2023-02-23T11:26:01.035Z,28.02
2023-02-23T11:28:32.077Z,28.10
2023-02-23T11:31:03.894Z,24.65
2023-02-23T11:33:35.831Z,27.20
2023-02-23T11:36:18.457Z,29.90
2023-02-23T11:38:47.519Z,25.88
2023-02-23T11:41:24.401Z,28.52
2023-02-23T11:43:54.831Z,27.52
2023-02-23T11:46:23.986Z,22.08
2023-02-23T11:48:59.585Z,25.52
2023-02-23T11:51:30.386Z,24.27
2023-02-23T11:53:58.837Z,24.20
2023-02-23T11:56:28.552Z,33.42
2023-02-23T11:58:59.847Z,26.55
2023-02-23T12:01:41.678Z,28.50
2023-02-23T12:04:12.387Z,27.05
2023-02-23T12:06:42.156Z,22.52
2023-02-23T12:09:19.253Z,23.48
2023-02-23T12:11:52.403Z,23.75
2023-02-23T12:14:28.702Z,21.23
2023-02-23T12:17:00.460Z,21.52
2023-02-23T12:19:34.006Z,21.15
2023-02-23T12:22:08.016Z,24.98
2023-02-23T12:24:44.200Z,22.10
2023-02-23T12:27:15.601Z,27.98
2023-02-23T12:30:00.893Z,22.73
2023-02-23T12:32:40.712Z,24.88
2023-02-23T12:35:16.978Z,25.65
2023-02-23T12:37:48.647Z,24.13
2023-02-23T12:40:18.831Z,26.00
2023-02-23T12:42:55.057Z,27.73
2023-02-23T12:45:29.156Z,26.60
2023-02-23T12:48:06.983Z,31.42
2023-02-23T12:50:43.301Z,31.05
2023-02-23T12:53:21.806Z,28.50
2023-02-23T12:56:05.747Z,25.58
2023-02-23T12:58:45.272Z,32.60
2023-02-23T13:01:18.675Z,33.97
2023-02-23T13:04:09.782Z,28.95
2023-02-23T13:06:51.540Z,31.77
2023-02-23T13:09:34.871Z,29.38
2023-02-23T13:12:15.764Z,31.17
2023-02-23T13:14:50.944Z,29.80
2023-02-23T13:17:32.919Z,30.50
2023-02-23T13:20:05.671Z,30.30
2023-02-23T13:22:41.251Z,30.40
2023-02-23T13:25:24.177Z,33.67
2023-02-23T13:27:59.705Z,31.60
2023-02-23T13:30:27.742Z,32.85
2023-02-23T13:32:58.142Z,29.45
2023-02-23T13:35:26.882Z,39.53
2023-02-23T13:38:02.091Z,30.33
2023-02-23T13:40:33.518Z,35.78
2023-02-23T13:43:13.638Z,35.10
2023-02-23T13:46:10.852Z,34.65
2023-02-23T13:48:56.584Z,28.23
2023-02-23T13:51:33.492Z,33.88
2023-02-23T13:54:07.981Z,31.52
2023-02-23T13:56:44.084Z,30.77
2023-02-23T13:59:18.372Z,34.47
2023-02-23T14:01:48.938Z,29.30
2023-02-23T14:04:22.175Z,27.20
2023-02-23T14:06:56.561Z,33.60
2023-02-23T14:09:31.357Z,31.35
2023-02-23T14:12:16.683Z,26.08
2023-02-23T14:14:47.066Z,26.75
2023-02-23T14:18:05.326Z,28.40
2023-02-23T14:20:47.704Z,31.38
2023-02-23T14:23:31.325Z,26.48
2023-02-23T14:26:38.938Z,25.50
2023-02-23T14:29:25.539Z,27.25
2023-02-23T14:32:00.576Z,29.95
2023-02-23T14:34:49.047Z,27.50
2023-02-23T14:37:32.125Z,27.42
2023-02-23T14:40:15.585Z,25.15
2023-02-23T14:42:51.928Z,24.75
2023-02-23T14:45:25.630Z,28.25
2023-02-23T14:47:56.554Z,27.55
2023-02-23T14:50:27.850Z,25.75
2023-02-23T14:52:58.220Z,27.45
2023-02-23T14:55:30.216Z,27.50
2023-02-23T14:57:59.692Z,24.45
2023-02-23T15:00:32.488Z,26.17
2023-02-23T15:03:02.540Z,31.98
2023-02-23T15:05:32.613Z,27.08
2023-02-23T15:08:02.074Z,27.38
2023-02-23T15:10:33.984Z,25.92
2023-02-23T15:13:10.106Z,25.60
2023-02-23T15:15:45.560Z,30.60
2023-02-23T15:19:08.633Z,26.30
2023-02-23T15:21:40.679Z,28.80
2023-02-23T15:24:13.641Z,23.50
2023-02-23T15:26:43.649Z,30.00
2023-02-23T15:29:16.177Z,31.42
2023-02-23T15:31:51.812Z,31.83
2023-02-23T15:34:25.918Z,28.98
2023-02-23T15:36:58.304Z,25.63
2023-02-23T15:39:37.397Z,22.08
2023-02-23T15:42:06.683Z,29.10
2023-02-23T15:44:44.045Z,25.80
2023-02-23T15:47:22.083Z,27.23
2023-02-23T15:49:50.088Z,28.85
2023-02-23T15:52:21.753Z,23.73
2023-02-23T15:54:53.259Z,29.40
2023-02-23T15:57:22.721Z,27.63
2023-02-23T15:59:54.484Z,32.65
2023-02-23T16:02:25.374Z,26.20
2023-02-23T16:04:53.772Z,28.73
2023-02-23T16:07:23.750Z,30.23
2023-02-23T16:09:54.535Z,25.50
2023-02-23T16:12:26.305Z,26.88
2023-02-23T16:14:57.950Z,23.92
2023-02-23T16:17:29.436Z,25.88
2023-02-23T16:20:11.269Z,29.63
2023-02-23T16:22:40.818Z,31.48
2023-02-23T16:25:14.805Z,28.70
2023-02-23T16:27:44.198Z,26.45
2023-02-23T16:30:23.358Z,25.45
2023-02-23T16:33:04.534Z,28.25
2023-02-23T16:35:39.692Z,27.15
2023-02-23T16:38:14.796Z,25.23
2023-02-23T16:40:43.343Z,31.52
2023-02-23T16:43:11.207Z,25.98
2023-02-23T16:45:43.232Z,31.50
2023-02-23T16:48:14.290Z,31.40
2023-02-23T16:50:45.501Z,26.17
2023-02-23T16:53:14.832Z,27.88
2023-02-23T16:55:47.926Z,24.33
2023-02-23T16:58:18.821Z,26.92
2023-02-23T17:00:48.229Z,26.40
2023-02-23T17:03:20.294Z,33.40
2023-02-23T17:05:48.564Z,24.73
2023-02-23T17:08:16.630Z,19.48
2023-02-23T17:10:47.270Z,26.17
2023-02-23T17:13:18.800Z,21.08
2023-02-23T17:15:51.636Z,25.73
2023-02-23T17:18:20.317Z,26.00
2023-02-23T17:20:48.055Z,33.88
2023-02-23T17:23:15.779Z,36.03
2023-02-23T17:25:48.660Z,47.80
2023-02-23T17:28:16.876Z,39.40
2023-02-23T17:30:44.756Z,46.28
2023-02-23T17:33:15.135Z,40.13
2023-02-23T17:35:43.889Z,43.10
2023-02-23T17:38:11.597Z,51.90
2023-02-23T17:40:40.806Z,38.95
2023-02-23T17:43:08.758Z,46.10
2023-02-23T17:45:36.775Z,40.63
2023-02-23T17:48:04.512Z,42.10
2023-02-23T17:50:34.535Z,46.13
2023-02-23T17:53:02.341Z,43.70
2023-02-23T17:55:30.054Z,49.05
2023-02-23T17:57:57.740Z,45.70
2023-02-23T18:00:26.029Z,44.83
2023-02-23T18:02:53.971Z,49.95
2023-02-23T18:05:22.749Z,42.20
2023-02-23T18:07:51.649Z,48.03
2023-02-23T18:10:19.550Z,43.58
2023-02-23T18:12:47.166Z,48.83
2023-02-23T18:15:15.403Z,50.28
2023-02-23T18:17:43.173Z,43.08
2023-02-23T18:20:14.912Z,50.17
2023-02-23T18:22:44.058Z,45.28
2023-02-23T18:25:22.156Z,44.58
2023-02-23T18:27:53.965Z,44.50
2023-02-23T18:30:23.335Z,51.13
2023-02-23T18:32:52.357Z,51.97
2023-02-23T18:35:20.282Z,42.58
2023-02-23T18:37:49.649Z,54.53
2023-02-23T18:40:21.506Z,48.47
2023-02-23T18:42:51.450Z,46.20
2023-02-23T18:45:19.225Z,49.65
2023-02-23T18:47:47.389Z,49.33
2023-02-23T18:50:18.889Z,47.42
2023-02-23T18:52:47.188Z,44.42
2023-02-23T18:55:15.328Z,49.40
2023-02-23T18:57:43.061Z,43.45
2023-02-23T19:00:14.866Z,53.25
2023-02-23T19:02:44.420Z,52.58
2023-02-23T19:05:13.824Z,47.13
2023-02-23T19:07:42.306Z,43.67
2023-02-23T19:10:12.173Z,44.85
2023-02-23T19:12:40.272Z,47.78
2023-02-23T19:15:09.407Z,43.72
2023-02-23T19:17:38.389Z,50.35
2023-02-23T19:20:12.698Z,49.33
2023-02-23T19:22:41.780Z,44.15
2023-02-23T19:25:14.038Z,43.08
2023-02-23T19:27:42.387Z,37.97
2023-02-23T19:30:11.282Z,22.02
2023-02-23T19:32:40.807Z,15.77
2023-02-23T19:35:14.526Z,20.30
2023-02-23T19:37:47.316Z,13.88
2023-02-23T19:40:19.777Z,13.93
2023-02-23T19:42:48.704Z,11.95
2023-02-23T19:45:17.225Z,6.60
2023-02-23T19:47:46.310Z,6.68
2023-02-23T19:50:16.835Z,5.20
2023-02-23T19:52:45.800Z,5.18
2023-02-23T19:55:14.252Z,7.03
2023-02-23T19:57:43.330Z,7.93
2023-02-23T20:00:12.612Z,13.82
2023-02-23T20:02:43.755Z,13.75
2023-02-23T20:05:13.932Z,9.70
2023-02-23T20:07:41.976Z,5.22
2023-02-23T20:10:13.957Z,8.30
2023-02-23T20:12:41.669Z,14.20
2023-02-23T20:15:10.559Z,7.40
2023-02-23T20:17:39.938Z,7.43
2023-02-23T20:20:10.882Z,6.05
2023-02-23T20:22:42.087Z,8.30
2023-02-23T20:25:15.807Z,6.88
2023-02-23T20:27:44.946Z,7.68
2023-02-23T20:30:14.401Z,9.10
2023-02-23T20:32:42.339Z,12.70
2023-02-23T20:35:13.567Z,9.20
2023-02-23T20:37:43.011Z,13.70
2023-02-23T20:40:18.356Z,24.20
2023-02-23T20:42:50.213Z,11.25
2023-02-23T20:45:21.050Z,5.72
2023-02-23T20:47:52.873Z,10.88
2023-02-23T20:50:21.680Z,10.55
2023-02-23T20:52:51.091Z,13.55
2023-02-23T20:55:19.899Z,8.20
2023-02-23T20:57:48.583Z,10.05
2023-02-23T21:00:22.534Z,16.52
2023-02-23T21:02:55.211Z,10.73
2023-02-23T21:05:24.384Z,7.95
2023-02-23T21:07:56.730Z,13.68
2023-02-23T21:10:24.445Z,8.45
2023-02-23T21:12:52.706Z,12.10
2023-02-23T21:15:20.369Z,13.07
2023-02-23T21:17:48.026Z,7.45
2023-02-23T21:20:16.463Z,10.30
2023-02-23T21:22:44.102Z,7.32
2023-02-23T21:25:13.392Z,6.65
2023-02-23T21:27:42.993Z,13.45
2023-02-23T21:30:16.002Z,8.63
2023-02-23T21:32:43.827Z,9.52
2023-02-23T21:35:12.076Z,8.98
2023-02-23T21:37:40.752Z,11.65
2023-02-23T21:40:12.249Z,9.95
2023-02-23T21:42:42.438Z,13.40
2023-02-23T21:45:12.240Z,16.52
2023-02-23T21:47:42.726Z,8.13
2023-02-23T21:50:13.502Z,9.43
2023-02-23T21:52:43.787Z,13.15
2023-02-23T21:55:21.181Z,11.32
2023-02-23T21:57:51.640Z,12.45
2023-02-23T22:00:20.770Z,10.88
2023-02-23T22:02:48.998Z,6.88
2023-02-23T22:05:18.448Z,10.30
2023-02-23T22:07:49.982Z,9.40
2023-02-23T22:10:18.841Z,8.82
2023-02-23T22:12:47.074Z,7.43
2023-02-23T22:15:16.894Z,8.88
2023-02-23T22:17:45.095Z,8.30
2023-02-23T22:20:14.617Z,10.13
2023-02-23T22:22:42.858Z,11.88
2023-02-23T22:25:11.264Z,6.20
2023-02-23T22:27:41.525Z,7.95
2023-02-23T22:30:13.122Z,13.70
2023-02-23T22:32:42.948Z,18.30
2023-02-23T22:35:11.611Z,12.70
2023-02-23T22:37:39.518Z,13.37
2023-02-23T22:40:12.288Z,7.18
2023-02-23T22:42:39.867Z,12.63
2023-02-23T22:45:09.835Z,11.48
2023-02-23T22:47:39.741Z,8.73
2023-02-23T22:50:12.071Z,4.27
2023-02-23T22:52:42.257Z,13.63
2023-02-23T22:55:10.965Z,9.63
2023-02-23T22:57:39.757Z,10.30
2023-02-23T23:00:10.209Z,11.27
2023-02-23T23:02:37.960Z,7.70
2023-02-23T23:05:09.115Z,8.18
2023-02-23T23:07:38.036Z,19.37
2023-02-23T23:10:09.185Z,13.77
2023-02-23T23:12:37.875Z,12.55
2023-02-23T23:15:07.100Z,19.37
2023-02-23T23:17:35.779Z,8.18
2023-02-23T23:20:11.752Z,8.27
2023-02-23T23:22:41.073Z,6.80
2023-02-23T23:25:14.859Z,17.23
2023-02-23T23:27:45.224Z,10.75
2023-02-23T23:30:14.262Z,12.17
2023-02-23T23:32:42.014Z,11.88
2023-02-23T23:35:13.352Z,9.48
2023-02-23T23:37:43.010Z,11.20
2023-02-23T23:40:14.865Z,7.15
2023-02-23T23:42:46.087Z,11.23
2023-02-23T23:45:16.481Z,14.90
2023-02-23T23:47:44.741Z,8.55
2023-02-23T23:50:13.283Z,16.00
2023-02-23T23:52:44.329Z,9.57
2023-02-23T23:55:14.563Z,16.13
2023-02-23T23:57:43.250Z,8.03
